Time;durP1;ratioP1;P1;durP2;ratioP2;P2;SDS_P1;SDS_P2;PMS_P1;PMS_P2;Temp;Humidity;BMP_temperature;BMP_pressure;BME280_temperature;BME280_humidity;BME280_pressure;Samples;Min_cycle;Max_cycle;Signal;HPM_P1;HPM_P2
2022/05/31 00:01:49;;;;;;;5.25;2.28;;;22.70;96.70;;;;;;5037074;28;20045;-81
2022/05/31 00:04:18;;;;;;;6.50;1.80;;;22.70;96.70;;;;;;5048349;28;20045;-82
2022/05/31 00:06:46;;;;;;;6.90;2.15;;;22.70;96.70;;;;;;5033626;28;20049;-80
2022/05/31 00:09:15;;;;;;;6.25;1.95;;;22.70;96.70;;;;;;5044284;28;20502;-82
2022/05/31 00:11:44;;;;;;;4.93;2.00;;;22.70;96.70;;;;;;5039684;28;20095;-80
2022/05/31 00:14:19;;;;;;;6.38;1.73;;;22.70;96.70;;;;;;5045798;28;20049;-81
2022/05/31 00:16:48;;;;;;;7.55;2.08;;;22.60;96.70;;;;;;5050089;28;20514;-81
2022/05/31 00:19:17;;;;;;;7.72;1.95;;;22.50;96.70;;;;;;5027086;28;20048;-81
2022/05/31 00:21:49;;;;;;;8.82;2.70;;;22.50;96.70;;;;;;5034719;28;20057;-80
2022/05/31 00:24:21;;;;;;;6.25;2.10;;;22.60;96.70;;;;;;5043581;28;20107;-81
2022/05/31 00:26:49;;;;;;;8.00;2.17;;;22.50;96.70;;;;;;5021942;28;20190;-81
2022/05/31 00:29:19;;;;;;;8.30;2.47;;;22.40;96.70;;;;;;5043339;28;20519;-81
2022/05/31 00:31:49;;;;;;;5.53;1.92;;;22.30;96.70;;;;;;5045069;28;20384;-82
2022/05/31 00:34:18;;;;;;;7.05;2.00;;;22.30;96.70;;;;;;5038283;28;20042;-80
2022/05/31 00:36:49;;;;;;;6.88;2.10;;;22.20;96.70;;;;;;5037192;28;20053;-81
2022/05/31 00:39:18;;;;;;;5.78;1.92;;;22.30;96.70;;;;;;5043788;28;20045;-81
2022/05/31 00:41:57;;;;;;;7.57;2.00;;;22.30;96.70;;;;;;5041989;28;20049;-81
2022/05/31 00:44:28;;;;;;;9.63;1.75;;;22.30;96.70;;;;;;5040703;28;20068;-82
2022/05/31 00:46:59;;;;;;;6.50;1.77;;;22.30;96.70;;;;;;5041933;28;20049;-81
2022/05/31 00:49:32;;;;;;;4.88;2.00;;;22.20;96.70;;;;;;5023374;28;20053;-81
2022/05/31 00:52:07;;;;;;;7.28;2.47;;;22.10;96.70;;;;;;5021083;28;20612;-82
2022/05/31 00:54:40;;;;;;;5.65;2.10;;;22.10;96.70;;;;;;5032699;28;20053;-81
2022/05/31 00:57:09;;;;;;;9.23;1.75;;;22.00;96.70;;;;;;5033867;28;20501;-81
2022/05/31 00:59:43;;;;;;;8.55;2.22;;;22.00;96.70;;;;;;5032730;28;20120;-81
2022/05/31 01:02:12;;;;;;;7.30;1.90;;;22.10;96.70;;;;;;5037076;28;20707;-81
2022/05/31 01:04:42;;;;;;;4.20;1.33;;;22.10;96.70;;;;;;5037388;28;20045;-81
2022/05/31 01:07:10;;;;;;;5.85;2.00;;;22.10;96.70;;;;;;5040745;28;20530;-81
2022/05/31 01:09:39;;;;;;;7.10;1.50;;;22.00;96.70;;;;;;5035308;28;20048;-81
2022/05/31 01:12:38;;;;;;;8.00;1.85;;;22.10;96.70;;;;;;4986852;28;20053;-81
2022/05/31 01:15:26;;;;;;;5.45;1.58;;;22.00;96.70;;;;;;5037148;28;20155;-81
2022/05/31 01:18:14;;;;;;;7.13;1.88;;;21.90;96.70;;;;;;5041714;28;20056;-81
2022/05/31 01:21:18;;;;;;;5.32;1.70;;;21.90;96.70;;;;;;5035169;28;20042;-81
2022/05/31 01:24:15;;;;;;;4.80;1.88;;;21.90;96.70;;;;;;5038586;28;20399;-80
2022/05/31 01:26:53;;;;;;;7.63;1.67;;;21.90;96.70;;;;;;5043775;28;20053;-80
2022/05/31 01:29:25;;;;;;;8.00;2.08;;;21.90;96.70;;;;;;5035630;28;20045;-81
2022/05/31 01:31:57;;;;;;;4.85;1.90;;;21.90;96.70;;;;;;5040035;28;20048;-81
2022/05/31 01:34:31;;;;;;;6.93;1.77;;;21.90;96.70;;;;;;5048896;28;20049;-81
2022/05/31 01:37:01;;;;;;;5.00;1.80;;;21.80;96.70;;;;;;5036706;28;20041;-80
2022/05/31 01:39:35;;;;;;;4.13;1.83;;;21.60;96.70;;;;;;5038175;28;21679;-81
2022/05/31 01:42:07;;;;;;;4.43;1.60;;;21.60;96.70;;;;;;5036762;28;20045;-80
2022/05/31 01:44:40;;;;;;;6.38;1.80;;;21.70;96.70;;;;;;5032240;28;20522;-81
2022/05/31 01:47:08;;;;;;;4.65;1.58;;;21.80;96.70;;;;;;5038001;28;20037;-81
2022/05/31 01:49:39;;;;;;;6.10;1.50;;;21.90;96.70;;;;;;5037667;28;20141;-80
2022/05/31 01:52:10;;;;;;;5.45;1.80;;;21.80;96.70;;;;;;5040104;28;20049;-81
2022/05/31 01:54:39;;;;;;;7.65;1.70;;;21.90;96.70;;;;;;5019541;28;20044;-80
2022/05/31 01:57:12;;;;;;;4.88;2.00;;;21.90;96.70;;;;;;5034077;28;20041;-81
2022/05/31 01:59:44;;;;;;;5.15;1.80;;;21.70;96.70;;;;;;5031868;28;20521;-80
2022/05/31 02:02:15;;;;;;;5.40;1.52;;;21.70;96.70;;;;;;5032693;28;20095;-80
2022/05/31 02:04:43;;;;;;;9.68;2.05;;;21.70;96.70;;;;;;5043614;28;20049;-81
2022/05/31 02:07:15;;;;;;;6.68;1.70;;;21.70;96.70;;;;;;5040297;28;20037;-81
2022/05/31 02:09:47;;;;;;;5.00;1.63;;;21.80;96.70;;;;;;5039696;28;20147;-81
2022/05/31 02:12:29;;;;;;;4.93;1.67;;;21.60;96.70;;;;;;5037200;28;20144;-81
2022/05/31 02:15:33;;;;;;;6.45;1.50;;;21.60;96.70;;;;;;5038621;28;20052;-80
2022/05/31 02:18:24;;;;;;;5.28;2.03;;;21.70;96.70;;;;;;5014102;28;20071;-81
2022/05/31 02:20:52;;;;;;;6.25;1.65;;;21.70;96.70;;;;;;5035531;28;20046;-81
2022/05/31 02:23:21;;;;;;;6.95;1.85;;;21.60;96.70;;;;;;5037686;28;20069;-81
2022/05/31 02:25:49;;;;;;;4.22;1.85;;;21.50;96.70;;;;;;5032352;28;20107;-81
2022/05/31 02:28:17;;;;;;;5.57;1.95;;;21.40;96.70;;;;;;5036051;28;20618;-80
2022/05/31 02:30:45;;;;;;;4.40;1.90;;;21.40;96.70;;;;;;5040350;28;20063;-81
2022/05/31 02:33:13;;;;;;;5.70;2.20;;;21.40;96.70;;;;;;5034278;28;20136;-81
2022/05/31 02:35:41;;;;;;;7.32;2.60;;;21.30;96.70;;;;;;5016485;28;20578;-81
2022/05/31 02:38:10;;;;;;;5.50;1.83;;;21.40;96.70;;;;;;5041100;28;20060;-81
2022/05/31 02:40:39;;;;;;;12.15;2.30;;;21.30;96.70;;;;;;5022211;28;20519;-80
2022/05/31 02:43:09;;;;;;;5.97;1.80;;;21.40;96.70;;;;;;5039148;28;20099;-81
2022/05/31 02:45:37;;;;;;;6.97;2.30;;;21.50;96.70;;;;;;5030614;28;20498;-81
2022/05/31 02:48:05;;;;;;;7.97;2.20;;;21.50;96.70;;;;;;5040868;28;20048;-81
2022/05/31 02:50:33;;;;;;;7.82;2.50;;;21.40;96.70;;;;;;5020578;28;20068;-80
2022/05/31 02:53:01;;;;;;;6.28;2.10;;;21.30;96.70;;;;;;5026346;28;20053;-80
2022/05/31 02:55:29;;;;;;;8.40;1.95;;;21.30;96.70;;;;;;5038286;28;20033;-81
2022/05/31 02:58:17;;;;;;;6.07;1.80;;;21.30;96.70;;;;;;5031609;28;20798;-80
2022/05/31 03:01:18;;;;;;;8.95;2.38;;;21.30;96.70;;;;;;5039850;28;20044;-80
2022/05/31 03:04:05;;;;;;;7.60;2.10;;;21.20;96.70;;;;;;5036314;28;20411;-80
2022/05/31 03:07:03;;;;;;;5.18;1.60;;;21.20;96.70;;;;;;5020297;28;20521;-80
2022/05/31 03:09:43;;;;;;;7.97;2.20;;;21.20;96.70;;;;;;5019698;28;20422;-80
2022/05/31 03:12:16;;;;;;;6.63;2.72;;;21.20;96.70;;;;;;5029405;28;20596;-81
2022/05/31 03:14:50;;;;;;;5.75;1.88;;;21.20;96.70;;;;;;5037740;28;20053;-81
2022/05/31 03:17:25;;;;;;;6.18;2.35;;;21.20;96.70;;;;;;5041014;28;20055;-81
2022/05/31 03:19:58;;;;;;;7.65;2.20;;;21.20;96.70;;;;;;5022846;28;20038;-80
2022/05/31 03:22:34;;;;;;;8.25;1.90;;;21.10;96.70;;;;;;5034353;28;20535;-81
2022/05/31 03:25:07;;;;;;;7.55;1.90;;;21.10;96.70;;;;;;5039460;28;20051;-81
2022/05/31 03:27:36;;;;;;;7.80;2.55;;;21.10;96.70;;;;;;5023964;28;20048;-80
2022/05/31 03:30:06;;;;;;;8.88;2.30;;;21.10;96.70;;;;;;5023413;28;20083;-81
2022/05/31 03:32:36;;;;;;;4.55;2.05;;;21.00;96.70;;;;;;5035540;28;20045;-80
2022/05/31 03:35:07;;;;;;;8.80;1.85;;;21.10;96.70;;;;;;5024113;28;20046;-80
2022/05/31 03:37:36;;;;;;;6.45;2.10;;;21.10;96.70;;;;;;5029206;28;20095;-81
2022/05/31 03:43:05;;;;;;;6.15;3.42;;;21.00;96.70;;;;;;5037734;28;20065;-80
2022/05/31 03:45:36;;;;;;;5.90;2.70;;;21.00;96.70;;;;;;5028622;28;20049;-81
2022/05/31 03:48:23;;;;;;;10.48;2.42;;;21.00;96.70;;;;;;5037583;28;20714;-80
2022/05/31 03:50:59;;;;;;;5.50;2.00;;;20.90;96.70;;;;;;5034078;28;20049;-81
2022/05/31 03:53:28;;;;;;;5.53;2.00;;;21.00;96.70;;;;;;5035382;28;20049;-80
2022/05/31 03:56:00;;;;;;;6.22;1.90;;;21.10;96.70;;;;;;5039855;28;20095;-81
2022/05/31 03:58:29;;;;;;;6.43;1.90;;;21.10;96.70;;;;;;5034040;28;20372;-81
2022/05/31 04:01:09;;;;;;;4.78;1.83;;;21.00;96.70;;;;;;5040029;28;20053;-81
2022/05/31 04:03:52;;;;;;;6.65;1.63;;;20.90;96.70;;;;;;5022811;28;20072;-81
2022/05/31 04:06:21;;;;;;;6.00;2.05;;;21.00;96.70;;;;;;4956000;28;20530;-81
2022/05/31 04:08:49;;;;;;;2.97;1.58;;;21.00;96.70;;;;;;4948569;28;20062;-81
2022/05/31 04:11:17;;;;;;;7.35;2.47;;;20.90;96.70;;;;;;4954793;28;20068;-80
2022/05/31 04:13:45;;;;;;;5.72;1.83;;;20.90;96.70;;;;;;4952727;28;20051;-80
2022/05/31 04:16:50;;;;;;;5.20;1.85;;;20.90;96.70;;;;;;4976699;28;20166;-81
2022/05/31 04:19:18;;;;;;;8.45;1.92;;;21.00;96.70;;;;;;4935584;28;20117;-81
2022/05/31 04:21:46;;;;;;;6.90;1.85;;;21.10;96.70;;;;;;4965733;28;20055;-80
2022/05/31 04:24:13;;;;;;;6.47;2.10;;;21.20;96.70;;;;;;4966335;28;20389;-80
2022/05/31 04:26:48;;;;;;;6.13;2.42;;;21.10;96.70;;;;;;4974168;28;20417;-81
2022/05/31 04:29:35;;;;;;;6.70;1.98;;;21.10;96.70;;;;;;4967659;28;20057;-80
2022/05/31 04:32:24;;;;;;;5.43;2.03;;;21.10;96.70;;;;;;4977515;28;20120;-79
2022/05/31 04:35:26;;;;;;;7.47;2.15;;;21.10;96.70;;;;;;4957619;28;20594;-80
2022/05/31 04:37:54;;;;;;;5.90;1.98;;;21.20;96.70;;;;;;4968602;28;20054;-81
2022/05/31 04:40:30;;;;;;;5.10;2.08;;;21.20;96.70;;;;;;4967205;28;20154;-80
2022/05/31 04:43:19;;;;;;;5.28;1.90;;;21.20;96.70;;;;;;4939494;28;20065;-80
2022/05/31 04:46:21;;;;;;;4.80;1.75;;;21.30;96.70;;;;;;4891756;29;20987;-81
2022/05/31 04:48:56;;;;;;;7.13;1.90;;;21.20;96.70;;;;;;4884982;29;20048;-79
2022/05/31 04:51:29;;;;;;;6.95;2.00;;;21.10;96.70;;;;;;4878750;29;20052;-81
2022/05/31 04:53:59;;;;;;;6.63;2.00;;;21.10;96.70;;;;;;4857727;29;20201;-80
2022/05/31 04:57:05;;;;;;;5.20;1.83;;;21.20;96.70;;;;;;4884413;29;21001;-81
2022/05/31 04:59:33;;;;;;;9.25;2.45;;;21.20;96.70;;;;;;4858315;29;20056;-81
2022/05/31 05:02:01;;;;;;;4.30;1.92;;;21.20;96.70;;;;;;4855549;29;20683;-80
2022/05/31 05:04:39;;;;;;;7.73;2.57;;;21.10;96.70;;;;;;4871732;29;20056;-80
2022/05/31 05:07:08;;;;;;;6.60;2.30;;;21.10;96.70;;;;;;4879220;29;20061;-81
2022/05/31 05:09:38;;;;;;;4.00;2.13;;;21.20;96.70;;;;;;4875140;29;20055;-81
2022/05/31 05:12:24;;;;;;;;;;;21.20;96.70;;;;;;4875278;29;20087;-81
2022/05/31 05:14:59;;;;;;;5.38;2.20;;;21.10;96.70;;;;;;4872344;29;20098;-81
2022/05/31 05:17:29;;;;;;;6.20;2.30;;;21.10;96.70;;;;;;4869839;29;20590;-79
2022/05/31 05:19:58;;;;;;;6.78;2.10;;;21.10;96.70;;;;;;4871113;29;20043;-81
2022/05/31 05:22:28;;;;;;;4.68;1.98;;;21.20;96.70;;;;;;4925452;28;20089;-79
2022/05/31 05:24:58;;;;;;;9.57;2.60;;;21.20;96.70;;;;;;4959308;28;20051;-81
2022/05/31 05:27:38;;;;;;;6.32;2.42;;;21.20;96.70;;;;;;4956675;28;20575;-80
2022/05/31 05:33:22;;;;;;;8.82;2.20;;;21.20;96.70;;;;;;4969139;28;20452;-81
2022/05/31 05:36:12;;;;;;;8.65;2.40;;;21.30;96.70;;;;;;4965453;28;20047;-81
2022/05/31 05:38:40;;;;;;;7.28;2.50;;;21.30;96.70;;;;;;4974123;28;20058;-80
2022/05/31 05:41:40;;;;;;;9.45;2.70;;;21.30;96.70;;;;;;4970123;28;20276;-80
2022/05/31 05:44:44;;;;;;;8.50;2.78;;;21.30;96.70;;;;;;4946704;28;20492;-81
2022/05/31 05:47:14;;;;;;;7.18;2.88;;;21.10;96.70;;;;;;4947408;28;20039;-80
2022/05/31 05:49:44;;;;;;;11.02;2.80;;;21.10;96.70;;;;;;5017480;28;20045;-82
2022/05/31 05:52:40;;;;;;;6.72;3.00;;;21.30;96.70;;;;;;4997511;28;20049;-81
2022/05/31 05:55:26;;;;;;;8.73;3.00;;;21.40;96.70;;;;;;5020946;28;20102;-80
2022/05/31 05:58:23;;;;;;;5.28;2.60;;;21.60;96.70;;;;;;4996968;28;20092;-81
2022/05/31 06:01:13;;;;;;;7.25;2.80;;;21.50;96.70;;;;;;5021317;28;20159;-80
2022/05/31 06:03:57;;;;;;;7.28;3.15;;;21.60;96.70;;;;;;4999070;28;20143;-81
2022/05/31 06:06:27;;;;;;;;;;;21.70;96.70;;;;;;5021409;28;20058;-81
2022/05/31 06:09:01;;;;;;;8.32;3.25;;;21.70;96.70;;;;;;5005338;28;19925;-81
2022/05/31 06:11:34;;;;;;;9.27;3.05;;;21.70;96.70;;;;;;5022663;28;20045;-81
2022/05/31 06:14:07;;;;;;;5.78;2.83;;;21.70;96.70;;;;;;5001182;28;20053;-79
2022/05/31 06:16:39;;;;;;;7.43;2.95;;;21.80;96.70;;;;;;5019667;28;20466;-80
2022/05/31 06:19:13;;;;;;;6.80;2.85;;;21.80;96.70;;;;;;5031991;28;20052;-80
2022/05/31 06:21:43;;;;;;;5.30;2.72;;;21.80;96.70;;;;;;5032715;28;20049;-80
2022/05/31 06:24:23;;;;;;;9.38;2.88;;;21.90;96.70;;;;;;5022949;28;20045;-81
2022/05/31 06:26:55;;;;;;;9.63;3.30;;;22.00;96.70;;;;;;5036267;28;20083;-80
2022/05/31 06:29:23;;;;;;;11.93;3.47;;;22.10;96.70;;;;;;5038686;28;20061;-80
2022/05/31 06:31:50;;;;;;;7.45;3.42;;;22.20;96.70;;;;;;5039980;28;20534;-80
2022/05/31 06:34:31;;;;;;;9.85;2.90;;;22.30;96.70;;;;;;5032232;28;20041;-81
2022/05/31 06:37:20;;;;;;;9.60;3.40;;;22.50;96.70;;;;;;5034590;28;20087;-80
2022/05/31 06:39:50;;;;;;;8.65;3.58;;;22.60;96.70;;;;;;5018573;28;20056;-81
2022/05/31 06:42:37;;;;;;;10.15;4.55;;;22.60;96.70;;;;;;5038816;28;20199;-81
2022/05/31 06:45:34;;;;;;;;;;;22.80;96.70;;;;;;5030651;28;20061;-81
2022/05/31 06:48:20;;;;;;;11.80;4.05;;;22.90;96.70;;;;;;5037578;28;19935;-81
2022/05/31 06:51:09;;;;;;;9.45;3.47;;;22.90;96.70;;;;;;5040947;28;20052;-81
2022/05/31 06:57:02;;;;;;;7.57;3.13;;;23.00;96.70;;;;;;5039209;28;20046;-80
2022/05/31 06:59:37;;;;;;;;;;;23.00;96.70;;;;;;5028912;28;20041;-81
2022/05/31 07:02:06;;;;;;;9.68;3.42;;;22.90;96.70;;;;;;5032827;28;19924;-81
2022/05/31 07:04:35;;;;;;;10.07;4.13;;;22.90;96.70;;;;;;5038608;28;20069;-81
2022/05/31 07:07:03;;;;;;;9.05;4.40;;;23.00;96.70;;;;;;5034325;28;20120;-81
2022/05/31 07:09:52;;;;;;;8.43;3.20;;;23.10;96.70;;;;;;5026836;28;20126;-80
2022/05/31 07:12:37;;;;;;;9.73;3.90;;;23.10;96.70;;;;;;5023137;28;20877;-80
2022/05/31 07:15:25;;;;;;;10.52;4.32;;;23.20;96.70;;;;;;5038859;28;20151;-80
2022/05/31 07:18:22;;;;;;;10.05;4.55;;;23.30;96.70;;;;;;5034760;28;20165;-81
2022/05/31 07:20:50;;;;;;;10.98;4.78;;;23.30;96.70;;;;;;5036257;28;20132;-81
2022/05/31 07:23:18;;;;;;;8.43;4.35;;;23.30;96.70;;;;;;5038611;28;20102;-81
2022/05/31 07:25:53;;;;;;;12.53;5.30;;;23.40;96.70;;;;;;5021413;28;20545;-82
2022/05/31 07:28:43;;;;;;;8.63;4.47;;;23.40;96.70;;;;;;5032581;28;20651;-82
2022/05/31 07:31:11;;;;;;;10.18;4.63;;;23.40;96.70;;;;;;5024983;28;20514;-81
2022/05/31 07:33:58;;;;;;;11.57;4.50;;;23.50;96.70;;;;;;5039756;28;20075;-81
2022/05/31 07:36:27;;;;;;;11.32;4.22;;;23.70;96.70;;;;;;5026164;28;20306;-83
2022/05/31 07:39:18;;;;;;;9.00;4.05;;;23.80;96.70;;;;;;5030805;28;20185;-80
2022/05/31 07:41:49;;;;;;;8.25;3.97;;;24.10;96.70;;;;;;5035157;28;20491;-81
2022/05/31 07:44:21;;;;;;;8.40;3.53;;;24.10;96.70;;;;;;5041759;28;20067;-80
2022/05/31 07:46:49;;;;;;;9.70;3.78;;;24.30;96.70;;;;;;5034377;28;20506;-82
2022/05/31 07:49:17;;;;;;;8.98;4.03;;;24.40;96.70;;;;;;5020218;28;20052;-80
2022/05/31 07:51:48;;;;;;;8.35;3.35;;;24.50;96.70;;;;;;5036919;28;20049;-81
2022/05/31 07:54:36;;;;;;;8.65;3.35;;;24.60;96.70;;;;;;5033868;28;20661;-79
2022/05/31 08:00:45;;;;;;;10.73;3.35;;;24.80;96.70;;;;;;5032111;28;20142;-80
2022/05/31 08:03:14;;;;;;;10.50;3.33;;;24.90;96.70;;;;;;5039203;28;20041;-80
2022/05/31 08:05:42;;;;;;;9.43;3.30;;;24.90;96.70;;;;;;5021759;28;20918;-80
2022/05/31 08:08:09;;;;;;;6.75;3.00;;;25.00;96.70;;;;;;5039771;28;20037;-80
2022/05/31 08:11:01;;;;;;;6.85;3.00;;;25.00;96.70;;;;;;5036833;28;20536;-81
2022/05/31 08:13:29;;;;;;;6.50;2.92;;;25.00;96.70;;;;;;5041318;28;20044;-80
2022/05/31 08:15:59;;;;;;;7.18;3.13;;;24.90;96.70;;;;;;5040123;28;20049;-80
2022/05/31 08:18:27;;;;;;;7.75;2.90;;;24.90;96.70;;;;;;5034539;28;20119;-80
2022/05/31 08:20:59;;;;;;;7.13;3.20;;;25.00;96.70;;;;;;5042924;28;20037;-79
2022/05/31 08:23:27;;;;;;;7.43;2.90;;;25.10;96.70;;;;;;5022079;28;20057;-80
2022/05/31 08:25:55;;;;;;;7.30;2.83;;;25.20;96.70;;;;;;5037989;28;20076;-81
2022/05/31 08:28:23;;;;;;;4.95;2.42;;;25.30;96.70;;;;;;5018508;28;20454;-82
2022/05/31 08:30:55;;;;;;;7.15;2.85;;;25.30;96.70;;;;;;5038130;28;20132;-79
2022/05/31 08:33:25;;;;;;;8.77;2.88;;;25.30;96.70;;;;;;5039225;28;20041;-80
2022/05/31 08:35:53;;;;;;;20.02;2.83;;;25.40;96.70;;;;;;5039099;28;20363;-80
2022/05/31 08:38:30;;;;;;;5.82;2.58;;;25.30;96.70;;;;;;5030098;28;20049;-80
2022/05/31 08:41:07;;;;;;;11.48;2.83;;;25.30;96.70;;;;;;5039611;28;20057;-80
2022/05/31 08:43:52;;;;;;;8.30;2.80;;;25.40;96.70;;;;;;5038259;28;20522;-84
2022/05/31 08:46:30;;;;;;;11.10;2.63;;;25.60;96.70;;;;;;5047851;28;20086;-82
2022/05/31 08:49:01;;;;;;;8.98;2.28;;;25.50;96.70;;;;;;5045612;28;20041;-82
2022/05/31 08:51:55;;;;;;;8.38;2.45;;;25.40;96.70;;;;;;5026542;28;20301;-83
2022/05/31 08:57:29;;;;;;;7.95;2.25;;;25.50;96.70;;;;;;5037271;28;20111;-82
2022/05/31 09:00:02;;;;;;;7.00;1.83;;;25.30;96.70;;;;;;5047581;28;20112;-82
2022/05/31 09:02:33;;;;;;;6.93;2.33;;;25.30;96.70;;;;;;5042406;28;20053;-84
2022/05/31 09:05:24;;;;;;;8.85;2.08;;;25.40;96.70;;;;;;5039243;28;20057;-84
2022/05/31 09:08:06;;;;;;;8.88;2.38;;;25.50;96.70;;;;;;5041766;28;20059;-84
2022/05/31 09:10:40;;;;;;;7.72;2.28;;;25.60;96.70;;;;;;5045713;28;20049;-83
2022/05/31 09:13:15;;;;;;;10.65;2.42;;;25.60;96.70;;;;;;5045161;28;20052;-82
2022/05/31 09:15:49;;;;;;;6.63;2.10;;;25.60;96.70;;;;;;5036206;28;20044;-81
2022/05/31 09:18:22;;;;;;;7.30;1.85;;;25.40;96.70;;;;;;5042369;28;20032;-81
2022/05/31 09:20:53;;;;;;;7.28;2.25;;;25.30;96.70;;;;;;5032346;28;20046;-83
2022/05/31 09:23:24;;;;;;;4.28;1.95;;;25.40;96.70;;;;;;5039263;28;20049;-82
2022/05/31 09:25:59;;;;;;;8.88;2.08;;;25.50;96.70;;;;;;5029732;28;20049;-82
2022/05/31 09:28:37;;;;;;;7.85;2.05;;;25.50;96.70;;;;;;5045236;28;20068;-81
2022/05/31 09:31:18;;;;;;;9.18;1.90;;;25.60;96.70;;;;;;5039633;28;20115;-82
2022/05/31 09:34:03;;;;;;;8.67;1.73;;;25.70;96.70;;;;;;5038880;28;20621;-81
2022/05/31 09:36:40;;;;;;;5.25;1.90;;;25.60;96.70;;;;;;5027771;28;20072;-81
2022/05/31 09:39:24;;;;;;;8.18;2.17;;;25.70;96.70;;;;;;5042583;28;20049;-82
2022/05/31 09:41:59;;;;;;;9.95;2.22;;;25.70;96.70;;;;;;5041692;28;20053;-82
2022/05/31 09:44:35;;;;;;;9.35;2.60;;;25.70;96.70;;;;;;5020348;28;20047;-82
2022/05/31 09:47:10;;;;;;;8.30;2.10;;;25.80;96.70;;;;;;5041839;28;20044;-81
2022/05/31 09:49:41;;;;;;;9.95;2.00;;;25.80;96.70;;;;;;5037819;28;20095;-82
2022/05/31 09:52:16;;;;;;;6.75;1.92;;;25.80;96.70;;;;;;5040899;28;20041;-82
2022/05/31 09:58:25;;;;;;;8.07;2.33;;;25.80;96.70;;;;;;5037100;28;20056;-82
2022/05/31 10:01:24;;;;;;;5.57;1.73;;;26.00;96.70;;;;;;5038818;28;20418;-80
2022/05/31 10:04:08;;;;;;;7.70;1.90;;;26.10;96.70;;;;;;5040141;28;20049;-84
2022/05/31 10:06:56;;;;;;;6.72;2.95;;;26.40;96.70;;;;;;5034995;28;20060;-81
2022/05/31 10:09:33;;;;;;;8.07;2.50;;;26.60;96.70;;;;;;5025129;28;20164;-81
2022/05/31 10:12:16;;;;;;;9.50;2.13;;;26.70;96.70;;;;;;5031791;28;20052;-80
2022/05/31 10:14:46;;;;;;;8.02;2.55;;;26.90;96.70;;;;;;5032286;28;20071;-82
2022/05/31 10:17:30;;;;;;;6.75;2.25;;;27.00;96.70;;;;;;5045810;28;20049;-83
2022/05/31 10:20:25;;;;;;;5.75;2.30;;;26.90;96.70;;;;;;5047478;28;20071;-83
2022/05/31 10:22:57;;;;;;;8.55;2.30;;;27.00;96.70;;;;;;5035510;28;20494;-83
2022/05/31 10:25:54;;;;;;;8.30;2.10;;;27.20;96.70;;;;;;5038191;28;20786;-82
2022/05/31 10:29:00;;;;;;;10.23;2.25;;;27.50;96.70;;;;;;5037390;28;20068;-82
2022/05/31 10:31:53;;;;;;;7.55;2.78;;;27.60;96.70;;;;;;5044927;28;20137;-82
2022/05/31 10:34:34;;;;;;;8.18;2.05;;;27.80;96.70;;;;;;5038857;28;20044;-82
2022/05/31 10:37:05;;;;;;;6.05;1.92;;;27.80;96.70;;;;;;5035800;28;20503;-82
2022/05/31 10:39:36;;;;;;;6.50;2.13;;;27.90;96.70;;;;;;5041177;28;20056;-82
2022/05/31 10:42:14;;;;;;;5.50;1.88;;;28.10;96.70;;;;;;5039210;28;20046;-82
2022/05/31 10:44:51;;;;;;;8.00;2.10;;;28.50;96.70;;;;;;5041900;28;20136;-81
2022/05/31 10:47:21;;;;;;;8.75;2.17;;;28.50;96.70;;;;;;5036763;28;20120;-82
2022/05/31 10:49:50;;;;;;;5.47;2.28;;;28.40;96.70;;;;;;5035919;28;20046;-81
2022/05/31 10:52:24;;;;;;;9.43;2.60;;;28.30;96.70;;;;;;5026433;28;20136;-82
2022/05/31 10:55:02;;;;;;;7.70;2.08;;;28.20;96.70;;;;;;5048889;28;20068;-82
2022/05/31 10:57:44;;;;;;;10.10;2.78;;;28.40;96.70;;;;;;5037771;28;20037;-82
2022/05/31 11:00:19;;;;;;;7.43;2.47;;;28.60;96.70;;;;;;5044584;28;20053;-82
2022/05/31 11:03:17;;;;;;;7.38;2.03;;;28.70;96.70;;;;;;5044783;28;20060;-82
2022/05/31 11:05:55;;;;;;;7.97;2.55;;;28.70;96.70;;;;;;5039031;28;20053;-82
2022/05/31 11:11:37;;;;;;;8.13;2.13;;;28.40;96.70;;;;;;5040882;28;20718;-82
2022/05/31 11:14:30;;;;;;;8.95;2.08;;;28.30;96.70;;;;;;5035187;28;20463;-82
2022/05/31 11:17:07;;;;;;;6.65;2.10;;;28.20;96.70;;;;;;5036812;28;20045;-82
2022/05/31 11:19:48;;;;;;;8.07;1.98;;;28.20;96.70;;;;;;5044572;28;20048;-82
2022/05/31 11:22:38;;;;;;;6.30;2.22;;;28.20;96.70;;;;;;5047820;28;20550;-82
2022/05/31 11:25:20;;;;;;;10.02;2.10;;;28.40;96.70;;;;;;5048477;28;20135;-82
2022/05/31 11:27:56;;;;;;;6.60;1.95;;;28.80;96.70;;;;;;5048352;28;20040;-82
2022/05/31 11:30:34;;;;;;;6.55;2.28;;;29.10;96.70;;;;;;5034341;28;20053;-82
2022/05/31 11:33:28;;;;;;;5.10;2.13;;;29.10;96.70;;;;;;5037687;28;20108;-82
2022/05/31 11:36:07;;;;;;;6.10;2.35;;;28.70;96.70;;;;;;5047228;28;20045;-82
2022/05/31 11:38:46;;;;;;;6.30;2.05;;;28.60;96.70;;;;;;5047859;28;20491;-82
2022/05/31 11:41:20;;;;;;;6.80;2.17;;;28.40;96.70;;;;;;5036444;28;20089;-82
2022/05/31 11:44:33;;;;;;;4.13;2.10;;;28.80;96.70;;;;;;5031455;28;20364;-82
2022/05/31 11:47:42;;;;;;;4.97;1.80;;;28.80;96.70;;;;;;5044431;28;20410;-83
2022/05/31 11:50:22;;;;;;;7.93;2.00;;;28.80;96.70;;;;;;5010843;28;20080;-83
2022/05/31 11:53:04;;;;;;;4.53;1.80;;;29.00;96.70;;;;;;5036482;28;20514;-82
2022/05/31 11:55:37;;;;;;;4.70;1.73;;;29.30;96.70;;;;;;5037042;28;20069;-81
2022/05/31 11:58:33;;;;;;;5.35;2.13;;;29.60;96.70;;;;;;5033386;28;20466;-82
2022/05/31 12:01:10;;;;;;;7.93;2.20;;;29.50;96.70;;;;;;5022221;28;20702;-82
2022/05/31 12:03:57;;;;;;;6.78;2.22;;;29.60;96.70;;;;;;5035370;28;21906;-82
2022/05/31 12:06:34;;;;;;;9.68;2.50;;;29.60;96.70;;;;;;5036928;28;20791;-82
2022/05/31 12:09:14;;;;;;;8.35;2.45;;;29.80;96.70;;;;;;5045566;28;20098;-82
2022/05/31 12:11:48;;;;;;;6.38;2.03;;;30.00;96.70;;;;;;5045082;28;20041;-81
2022/05/31 12:14:18;;;;;;;8.55;2.40;;;30.00;96.70;;;;;;5040437;28;20566;-82
2022/05/31 12:16:46;;;;;;;10.35;2.92;;;29.80;96.70;;;;;;5036413;28;20049;-81
2022/05/31 12:19:29;;;;;;;6.13;2.20;;;29.50;96.70;;;;;;5036926;28;20530;-82
2022/05/31 12:22:13;;;;;;;6.30;1.95;;;29.40;96.70;;;;;;5021271;28;20407;-81
2022/05/31 12:25:09;;;;;;;7.00;2.00;;;29.50;96.70;;;;;;5026837;28;20051;-82
2022/05/31 12:27:41;;;;;;;4.53;2.00;;;29.60;96.70;;;;;;5037110;28;20053;-82
2022/05/31 12:30:19;;;;;;;4.95;2.25;;;29.70;96.70;;;;;;5040070;28;20525;-82
2022/05/31 12:33:44;;;;;;;5.32;2.40;;;29.60;96.70;;;;;;5041140;28;20095;-82
2022/05/31 12:36:16;;;;;;;5.55;2.30;;;29.80;96.70;;;;;;4986528;28;20057;-83
2022/05/31 12:38:55;;;;;;;8.85;2.30;;;30.10;96.70;;;;;;4951036;28;20058;-82
2022/05/31 12:41:33;;;;;;;10.00;2.63;;;30.30;96.70;;;;;;4984646;28;20062;-80
2022/05/31 12:44:01;;;;;;;7.22;2.80;;;30.50;96.70;;;;;;4949727;28;20061;-80
2022/05/31 12:46:37;;;;;;;8.50;2.05;;;30.40;96.70;;;;;;4948784;28;20049;-81
2022/05/31 12:49:10;;;;;;;10.93;2.90;;;30.10;96.70;;;;;;4985316;28;20073;-83
2022/05/31 12:51:40;;;;;;;6.22;2.40;;;29.90;96.70;;;;;;4969041;28;20062;-82
2022/05/31 12:54:18;;;;;;;8.68;2.28;;;30.10;96.70;;;;;;4970736;28;20046;-83
2022/05/31 12:56:57;;;;;;;5.13;2.53;;;30.70;96.70;;;;;;4983228;28;20075;-82
2022/05/31 12:59:52;;;;;;;7.63;2.10;;;31.00;96.70;;;;;;4968045;28;20047;-82
2022/05/31 13:02:40;;;;;;;7.03;2.10;;;30.60;96.70;;;;;;4954517;28;20086;-83
2022/05/31 13:05:40;;;;;;;7.68;2.50;;;30.40;96.70;;;;;;4970829;28;20050;-83
2022/05/31 13:08:21;;;;;;;6.13;2.10;;;30.10;96.70;;;;;;4967317;28;20065;-84
2022/05/31 13:19:41;;;;;;;8.30;2.15;;;30.20;96.70;;;;;;5036028;28;20052;-81
2022/05/31 13:22:14;;;;;;;7.45;2.15;;;29.90;96.70;;;;;;5039914;28;20056;-81
2022/05/31 13:24:54;;;;;;;6.50;1.90;;;29.80;96.70;;;;;;5040087;28;20132;-81
2022/05/31 13:27:26;;;;;;;9.50;2.67;;;29.70;96.70;;;;;;5035515;28;20053;-81
2022/05/31 13:30:04;;;;;;;7.90;2.20;;;30.10;96.70;;;;;;5037033;28;20557;-81
2022/05/31 13:32:35;;;;;;;18.95;2.70;;;30.30;96.70;;;;;;5034978;28;20041;-81
2022/05/31 13:35:09;;;;;;;6.72;2.35;;;30.60;96.70;;;;;;5035865;28;20479;-80
2022/05/31 13:37:55;;;;;;;6.47;2.13;;;30.70;96.70;;;;;;5037354;28;20693;-81
2022/05/31 13:40:32;;;;;;;7.03;2.10;;;31.10;96.70;;;;;;5043268;28;20064;-81
2022/05/31 13:43:01;;;;;;;7.65;2.38;;;31.20;96.70;;;;;;5036218;28;20044;-81
2022/05/31 13:45:30;;;;;;;8.35;2.53;;;31.60;96.70;;;;;;5036274;28;20045;-80
2022/05/31 13:48:01;;;;;;;13.90;2.67;;;32.00;96.70;;;;;;5024421;28;20472;-81
2022/05/31 13:50:37;;;;;;;4.13;2.03;;;31.90;96.70;;;;;;5036325;28;20053;-80
2022/05/31 13:53:06;;;;;;;7.53;2.22;;;32.00;96.20;;;;;;5034113;28;20060;-80
2022/05/31 13:55:36;;;;;;;6.80;1.88;;;31.50;96.70;;;;;;5029457;28;20049;-80
2022/05/31 13:58:05;;;;;;;9.13;2.30;;;30.90;96.70;;;;;;5036031;28;20152;-81
2022/05/31 14:00:36;;;;;;;8.02;2.17;;;30.80;96.70;;;;;;5035576;28;20517;-81
2022/05/31 14:03:11;;;;;;;5.80;2.53;;;31.60;96.70;;;;;;5041896;28;20053;-80
2022/05/31 14:05:48;;;;;;;8.70;2.60;;;32.20;96.70;;;;;;5036915;28;20048;-81
2022/05/31 14:08:25;;;;;;;14.55;3.55;;;32.30;96.70;;;;;;5032057;28;20057;-80
2022/05/31 14:10:54;;;;;;;9.18;2.60;;;32.00;96.70;;;;;;5038204;28;20549;-80